createdAt,value
2023-01-13T00:00:31.378Z,73.63
2023-01-13T00:02:59.281Z,73.69
2023-01-13T00:05:28.304Z,74.11
2023-01-13T00:07:56.198Z,73.80
2023-01-13T00:10:24.048Z,73.53
2023-01-13T00:12:53.448Z,73.28
2023-01-13T00:15:22.697Z,73.75
2023-01-13T00:17:50.548Z,73.53
2023-01-13T00:20:19.161Z,73.53
2023-01-13T00:22:47.156Z,73.83
2023-01-13T00:25:14.972Z,73.44
2023-01-13T00:27:42.839Z,73.81
2023-01-13T00:30:11.693Z,73.94
2023-01-13T00:32:40.984Z,73.33
2023-01-13T00:35:09.399Z,73.48
2023-01-13T00:37:38.628Z,73.22
2023-01-13T00:40:07.644Z,73.14
2023-01-13T00:42:52.860Z,73.30
2023-01-13T00:45:20.712Z,73.58
2023-01-13T00:47:50.014Z,72.99
2023-01-13T00:50:18.007Z,73.46
2023-01-13T00:52:45.831Z,73.45
2023-01-13T00:55:13.689Z,73.37
2023-01-13T00:57:41.502Z,73.10
2023-01-13T01:00:10.646Z,72.99
2023-01-13T01:02:38.464Z,73.02
2023-01-13T01:05:08.608Z,72.97
2023-01-13T01:07:36.559Z,73.06
2023-01-13T01:10:04.814Z,73.07
2023-01-13T01:12:32.631Z,73.21
2023-01-13T01:15:00.482Z,72.78
2023-01-13T01:17:29.308Z,72.63
2023-01-13T01:19:57.191Z,72.42
2023-01-13T01:22:26.423Z,72.41
2023-01-13T01:24:54.287Z,72.90
2023-01-13T01:27:22.314Z,72.73
2023-01-13T01:29:50.199Z,72.94
2023-01-13T01:32:17.999Z,72.71
2023-01-13T01:34:45.821Z,73.01
2023-01-13T01:37:13.677Z,72.97
2023-01-13T01:39:42.875Z,72.46
2023-01-13T01:42:34.195Z,72.94
2023-01-13T01:45:04.573Z,73.02
2023-01-13T01:47:33.777Z,73.04
2023-01-13T01:50:04.414Z,73.30
2023-01-13T01:52:38.608Z,72.91
2023-01-13T01:55:14.119Z,72.88
2023-01-13T01:57:49.191Z,72.83
2023-01-13T02:00:17.515Z,72.59
2023-01-13T02:02:49.467Z,73.03
2023-01-13T02:05:17.611Z,73.17
2023-01-13T02:07:49.323Z,72.91
2023-01-13T02:10:23.351Z,72.31
2023-01-13T02:12:54.147Z,72.69
2023-01-13T02:15:28.180Z,72.65
2023-01-13T02:18:13.042Z,72.92
2023-01-13T02:21:13.968Z,72.74
2023-01-13T02:24:33.379Z,72.70
2023-01-13T02:27:45.127Z,73.28
2023-01-13T02:30:48.956Z,72.79
2023-01-13T02:33:31.187Z,73.27
2023-01-13T02:36:05.454Z,72.83
2023-01-13T02:38:38.232Z,73.04
2023-01-13T02:41:31.102Z,73.07
2023-01-13T02:44:10.580Z,72.60
2023-01-13T02:46:49.847Z,72.68
2023-01-13T02:49:28.251Z,72.64
2023-01-13T02:52:05.404Z,72.95
2023-01-13T02:54:39.143Z,72.72
2023-01-13T02:57:12.697Z,73.26
2023-01-13T02:59:44.207Z,73.44
2023-01-13T03:02:17.667Z,73.08
2023-01-13T03:04:52.227Z,73.41
2023-01-13T03:07:57.493Z,73.40
2023-01-13T03:10:37.197Z,73.10
2023-01-13T03:13:22.137Z,73.06
2023-01-13T03:16:01.046Z,73.29
2023-01-13T03:18:46.641Z,73.43
2023-01-13T03:21:22.534Z,74.39
2023-01-13T03:23:55.015Z,74.11
2023-01-13T03:26:32.084Z,73.97
2023-01-13T03:29:10.034Z,74.01
2023-01-13T03:31:47.909Z,74.12
2023-01-13T03:34:23.462Z,73.95
2023-01-13T03:36:56.927Z,73.95
2023-01-13T03:39:33.136Z,73.94
2023-01-13T03:42:08.802Z,73.24
2023-01-13T03:44:42.443Z,73.36
2023-01-13T03:47:20.716Z,72.92
2023-01-13T03:49:57.177Z,72.78
2023-01-13T03:52:31.177Z,71.35
2023-01-13T03:55:06.915Z,71.44
2023-01-13T03:57:40.875Z,71.75
2023-01-13T04:00:14.469Z,71.49
2023-01-13T04:02:51.551Z,71.13
2023-01-13T04:05:21.242Z,71.28
2023-01-13T04:08:02.087Z,70.57
2023-01-13T04:10:37.358Z,70.32
2023-01-13T04:13:11.593Z,70.35
2023-01-13T04:15:43.347Z,70.59
2023-01-13T04:18:16.846Z,70.36
2023-01-13T04:20:48.741Z,70.74
2023-01-13T04:23:17.673Z,69.74
2023-01-13T04:25:47.265Z,70.33
2023-01-13T04:28:16.499Z,70.33
2023-01-13T04:30:45.065Z,69.94
2023-01-13T04:33:14.528Z,69.80
2023-01-13T04:35:43.086Z,69.60
2023-01-13T04:38:14.771Z,69.81
2023-01-13T04:40:43.441Z,69.23
2023-01-13T04:43:11.539Z,69.46
2023-01-13T04:45:39.875Z,69.23
2023-01-13T04:48:07.972Z,68.71
2023-01-13T04:50:36.151Z,69.41
2023-01-13T04:53:04.145Z,68.96
2023-01-13T04:55:33.808Z,69.27
2023-01-13T04:58:06.068Z,69.15
2023-01-13T05:00:34.365Z,69.26
2023-01-13T05:03:02.853Z,68.78
2023-01-13T05:05:32.545Z,68.99
2023-01-13T05:08:00.790Z,69.22
2023-01-13T05:10:29.175Z,69.40
2023-01-13T05:13:15.600Z,69.32
2023-01-13T05:16:01.791Z,68.93
2023-01-13T05:18:31.818Z,68.79
2023-01-13T05:20:59.862Z,69.63
2023-01-13T05:23:45.975Z,69.45
2023-01-13T05:26:13.885Z,69.26
2023-01-13T05:28:43.057Z,68.93
2023-01-13T05:31:12.133Z,69.36
2023-01-13T05:33:40.057Z,68.91
2023-01-13T05:36:08.670Z,69.18
2023-01-13T05:38:36.474Z,69.58
2023-01-13T05:41:21.815Z,69.22
2023-01-13T05:43:51.027Z,68.62
2023-01-13T05:46:18.952Z,68.41
2023-01-13T05:48:47.203Z,68.46
2023-01-13T05:51:15.159Z,68.43
2023-01-13T05:53:43.150Z,68.56
2023-01-13T05:56:12.208Z,68.57
2023-01-13T05:58:40.273Z,68.57
2023-01-13T06:01:10.979Z,68.70
2023-01-13T06:03:39.303Z,68.29
2023-01-13T06:06:08.922Z,68.62
2023-01-13T06:08:39.413Z,68.43
2023-01-13T06:11:07.676Z,68.41
2023-01-13T06:13:35.595Z,68.90
2023-01-13T06:16:03.731Z,69.10
2023-01-13T06:18:33.028Z,69.13
2023-01-13T06:21:00.898Z,69.64
2023-01-13T06:23:29.719Z,69.34
2023-01-13T06:26:07.011Z,69.50
2023-01-13T06:28:34.891Z,69.72
2023-01-13T06:31:08.615Z,70.22
2023-01-13T06:33:40.771Z,70.26
2023-01-13T06:36:14.813Z,70.10
2023-01-13T06:38:48.517Z,70.03
2023-01-13T06:41:18.088Z,70.41
2023-01-13T06:43:44.956Z,70.47
2023-01-13T06:46:12.803Z,70.47
2023-01-13T06:48:42.242Z,70.76
2023-01-13T06:51:10.161Z,70.61
2023-01-13T06:53:38.046Z,71.14
2023-01-13T06:56:06.136Z,71.42
2023-01-13T06:58:34.000Z,71.39
2023-01-13T07:01:02.315Z,71.53
2023-01-13T07:03:30.319Z,71.46
2023-01-13T07:06:00.457Z,72.08
2023-01-13T07:08:28.705Z,72.04
2023-01-13T07:10:56.538Z,72.30
2023-01-13T07:13:42.007Z,72.21
2023-01-13T07:16:10.955Z,72.69
2023-01-13T07:18:38.985Z,72.59
2023-01-13T07:21:11.922Z,72.86
2023-01-13T07:23:42.041Z,72.70
2023-01-13T07:26:10.979Z,73.24
2023-01-13T07:28:39.871Z,72.75
2023-01-13T07:31:15.473Z,73.47
2023-01-13T07:33:43.320Z,73.19
2023-01-13T07:36:13.044Z,73.29
2023-01-13T07:38:41.370Z,73.32
2023-01-13T07:41:31.036Z,73.74
2023-01-13T07:44:00.216Z,74.05
2023-01-13T07:46:28.314Z,74.34
2023-01-13T07:48:56.206Z,73.99
2023-01-13T07:51:25.513Z,74.61
2023-01-13T07:53:53.374Z,74.13
2023-01-13T07:56:21.727Z,74.51
2023-01-13T07:58:52.885Z,75.14
2023-01-13T08:01:22.398Z,74.62
2023-01-13T08:03:50.375Z,75.12
2023-01-13T08:06:18.769Z,74.94
2023-01-13T08:08:48.022Z,74.89
2023-01-13T08:11:15.939Z,75.11
2023-01-13T08:13:43.808Z,75.31
2023-01-13T08:16:13.799Z,75.01
2023-01-13T08:18:43.212Z,74.94
2023-01-13T08:21:13.818Z,74.85
2023-01-13T08:23:42.619Z,74.54
2023-01-13T08:26:15.004Z,75.09
2023-01-13T08:28:43.063Z,74.80
2023-01-13T08:31:16.165Z,75.04
2023-01-13T08:33:44.726Z,74.68
2023-01-13T08:36:13.200Z,74.72
2023-01-13T08:38:42.185Z,74.53
2023-01-13T08:41:12.660Z,74.44
2023-01-13T08:43:40.973Z,74.55
2023-01-13T08:46:08.969Z,73.97
2023-01-13T08:48:37.131Z,73.97
2023-01-13T08:51:07.185Z,74.17
2023-01-13T08:53:35.358Z,74.30
2023-01-13T08:56:03.427Z,74.38
2023-01-13T08:58:32.627Z,74.13
2023-01-13T09:01:06.249Z,74.44
2023-01-13T09:03:34.303Z,74.43
2023-01-13T09:06:02.419Z,74.36
2023-01-13T09:08:30.313Z,74.06
2023-01-13T09:10:58.600Z,74.44
2023-01-13T09:13:25.645Z,74.22
2023-01-13T09:15:56.722Z,74.36
2023-01-13T09:18:24.920Z,74.07
2023-01-13T09:20:52.879Z,73.88
2023-01-13T09:23:20.756Z,73.96
2023-01-13T09:25:49.261Z,74.21
2023-01-13T09:28:17.176Z,73.66
2023-01-13T09:30:45.071Z,73.84
2023-01-13T09:33:31.868Z,73.20
2023-01-13T09:36:01.075Z,73.05
2023-01-13T09:38:28.980Z,72.64
2023-01-13T09:40:57.089Z,72.59
2023-01-13T09:43:52.204Z,73.34
2023-01-13T09:46:47.431Z,72.78
2023-01-13T09:49:22.129Z,73.85
2023-01-13T09:51:59.525Z,74.21
2023-01-13T09:54:34.677Z,75.24
2023-01-13T09:57:02.978Z,76.01
2023-01-13T09:59:36.495Z,77.32
2023-01-13T10:02:25.801Z,78.00
2023-01-13T10:05:29.416Z,78.44
2023-01-13T10:08:04.583Z,79.09
2023-01-13T10:10:39.689Z,79.21
2023-01-13T10:13:19.993Z,79.83
2023-01-13T10:16:02.950Z,79.72
2023-01-13T10:18:45.510Z,79.29
2023-01-13T10:21:38.634Z,79.50
2023-01-13T10:24:17.778Z,79.24
2023-01-13T10:27:00.478Z,78.39
2023-01-13T10:29:30.257Z,78.59
2023-01-13T10:32:00.807Z,78.90
2023-01-13T10:34:30.244Z,80.02
2023-01-13T10:37:02.941Z,81.86
2023-01-13T10:39:40.827Z,82.96
2023-01-13T10:42:14.834Z,83.66
2023-01-13T10:44:54.495Z,84.25
2023-01-13T10:47:26.041Z,83.96
2023-01-13T10:50:20.011Z,84.73
2023-01-13T10:53:02.600Z,83.41
2023-01-13T10:55:33.282Z,84.25
2023-01-13T10:58:14.211Z,84.80
2023-01-13T11:00:42.287Z,84.88
2023-01-13T11:03:19.573Z,85.00
2023-01-13T11:05:55.370Z,85.44
2023-01-13T11:08:27.745Z,86.01
2023-01-13T11:10:58.235Z,85.76
2023-01-13T11:13:34.244Z,85.55
2023-01-13T11:16:12.638Z,85.14
2023-01-13T11:19:02.057Z,85.53
2023-01-13T11:21:37.543Z,84.93
2023-01-13T11:24:16.521Z,85.97
2023-01-13T11:26:52.508Z,84.67
2023-01-13T11:29:31.127Z,86.05
2023-01-13T11:32:10.540Z,85.20
2023-01-13T11:34:41.840Z,85.81
2023-01-13T11:37:19.148Z,85.60
2023-01-13T11:39:56.846Z,86.18
2023-01-13T11:42:31.078Z,85.37
2023-01-13T11:45:13.449Z,84.38
2023-01-13T11:47:41.359Z,84.71
2023-01-13T11:50:19.526Z,85.16
2023-01-13T11:53:05.636Z,82.50
2023-01-13T11:55:50.565Z,82.64
2023-01-13T11:58:49.774Z,82.48
2023-01-13T12:01:34.543Z,82.55
2023-01-13T12:04:22.159Z,81.76
2023-01-13T12:06:59.930Z,82.12
2023-01-13T12:09:44.544Z,81.65
2023-01-13T12:12:32.934Z,81.30
2023-01-13T12:15:39.448Z,80.84
2023-01-13T12:18:33.629Z,81.16
2023-01-13T12:21:16.416Z,80.49
2023-01-13T12:24:04.539Z,80.67
2023-01-13T12:26:38.729Z,80.05
2023-01-13T12:29:13.678Z,80.45
2023-01-13T12:31:44.626Z,79.71
2023-01-13T12:34:35.195Z,80.50
2023-01-13T12:37:17.131Z,79.92
2023-01-13T12:40:07.219Z,79.34
2023-01-13T12:43:03.798Z,79.97
2023-01-13T12:45:34.534Z,78.62
2023-01-13T12:48:02.854Z,79.03
2023-01-13T12:50:43.794Z,79.33
2023-01-13T12:53:44.728Z,79.89
2023-01-13T12:56:40.718Z,78.16
2023-01-13T12:59:36.479Z,79.29
2023-01-13T13:02:30.928Z,78.66
2023-01-13T13:05:05.118Z,79.78
2023-01-13T13:07:42.546Z,80.29
2023-01-13T13:10:20.401Z,79.02
2023-01-13T13:13:37.718Z,79.13
2023-01-13T13:16:38.135Z,78.88
2023-01-13T13:19:44.166Z,77.70
2023-01-13T13:22:39.023Z,78.41
2023-01-13T13:25:30.747Z,77.18
2023-01-13T13:28:20.059Z,76.70
2023-01-13T13:31:06.844Z,77.14
2023-01-13T13:33:53.074Z,76.50
2023-01-13T13:36:47.333Z,76.15
2023-01-13T13:39:42.234Z,76.74
2023-01-13T13:42:49.413Z,76.20
2023-01-13T13:45:39.177Z,76.00
2023-01-13T13:48:22.852Z,76.31
2023-01-13T13:50:55.293Z,76.70
2023-01-13T13:53:26.928Z,76.25
2023-01-13T13:55:59.817Z,75.68
2023-01-13T13:58:30.841Z,76.02
2023-01-13T14:01:00.783Z,76.24
2023-01-13T14:03:33.314Z,75.42
2023-01-13T14:06:04.175Z,75.68
2023-01-13T14:08:36.463Z,76.26
2023-01-13T14:11:27.199Z,75.74
2023-01-13T14:14:02.891Z,76.92
2023-01-13T14:16:31.877Z,75.80
2023-01-13T14:19:00.873Z,76.78
2023-01-13T14:21:30.818Z,77.36
2023-01-13T14:24:04.604Z,77.52
2023-01-13T14:26:33.918Z,77.79
2023-01-13T14:29:03.773Z,75.96
2023-01-13T14:31:33.756Z,76.29
2023-01-13T14:34:32.213Z,74.76
2023-01-13T14:36:52.942Z,76.08
2023-01-13T14:39:38.706Z,79.33
2023-01-13T14:42:13.866Z,79.33
2023-01-13T14:44:46.886Z,79.83
2023-01-13T14:47:22.995Z,79.42
2023-01-13T14:50:04.564Z,79.29
2023-01-13T14:52:35.997Z,79.07
2023-01-13T14:55:24.815Z,78.69
2023-01-13T14:57:54.205Z,79.01
2023-01-13T15:00:26.663Z,78.66
2023-01-13T15:03:07.234Z,78.86
2023-01-13T15:05:48.306Z,78.48
2023-01-13T15:08:40.463Z,77.82
2023-01-13T15:11:20.507Z,78.12
2023-01-13T15:13:59.106Z,78.93
2023-01-13T15:16:29.331Z,77.84
2023-01-13T15:18:57.683Z,77.08
2023-01-13T15:21:26.135Z,76.73
2023-01-13T15:23:54.048Z,77.19
2023-01-13T15:26:25.711Z,76.42
2023-01-13T15:28:57.222Z,75.57
2023-01-13T15:31:26.587Z,75.23
2023-01-13T15:33:54.774Z,73.95
2023-01-13T15:36:28.191Z,74.17
2023-01-13T15:38:56.937Z,74.08
2023-01-13T15:41:43.203Z,74.19
2023-01-13T15:44:32.460Z,75.90
2023-01-13T15:47:03.885Z,77.00
2023-01-13T15:49:37.520Z,78.02
2023-01-13T15:52:13.152Z,78.56
2023-01-13T15:54:41.018Z,78.38
2023-01-13T15:57:10.139Z,78.62
2023-01-13T15:59:39.540Z,79.30
2023-01-13T16:02:15.928Z,79.78
2023-01-13T16:04:43.840Z,80.33
2023-01-13T16:07:16.120Z,80.54
2023-01-13T16:09:45.043Z,80.57
2023-01-13T16:12:12.951Z,80.75
2023-01-13T16:14:42.367Z,80.66
2023-01-13T16:17:16.622Z,80.93
2023-01-13T16:19:45.538Z,80.79
2023-01-13T16:22:14.499Z,81.95
2023-01-13T16:24:42.836Z,81.69
2023-01-13T16:27:16.878Z,81.36
2023-01-13T16:29:47.216Z,82.04
2023-01-13T16:32:15.923Z,81.80
2023-01-13T16:34:44.845Z,81.50
2023-01-13T16:37:21.057Z,81.27
2023-01-13T16:39:49.072Z,81.64
2023-01-13T16:42:17.073Z,81.76
2023-01-13T16:44:48.299Z,81.98
2023-01-13T16:47:18.435Z,81.65
2023-01-13T16:49:47.359Z,81.68
2023-01-13T16:52:15.285Z,82.32
2023-01-13T16:54:43.295Z,81.86
2023-01-13T16:57:14.173Z,81.77
2023-01-13T16:59:42.123Z,81.85
2023-01-13T17:02:16.299Z,81.85
2023-01-13T17:04:44.189Z,81.27
2023-01-13T17:07:17.749Z,82.13
2023-01-13T17:09:45.641Z,82.15
2023-01-13T17:12:13.557Z,81.34
2023-01-13T17:14:43.375Z,81.22
2023-01-13T17:17:22.992Z,81.72
2023-01-13T17:19:52.623Z,81.76
2023-01-13T17:22:21.654Z,81.59
2023-01-13T17:24:50.113Z,81.97
2023-01-13T17:27:18.710Z,81.67
2023-01-13T17:29:46.921Z,81.45
2023-01-13T17:32:19.331Z,81.52
2023-01-13T17:34:47.527Z,81.59
2023-01-13T17:37:16.401Z,81.54
2023-01-13T17:39:46.792Z,81.64
2023-01-13T17:42:15.739Z,81.53
2023-01-13T17:44:43.941Z,81.31
2023-01-13T17:47:11.944Z,80.87
2023-01-13T17:49:41.437Z,80.53
2023-01-13T17:52:09.325Z,80.21
2023-01-13T17:54:37.283Z,80.19
2023-01-13T17:57:05.176Z,79.90
2023-01-13T17:59:33.567Z,80.23
2023-01-13T18:02:01.779Z,79.89
2023-01-13T18:04:30.886Z,79.76
2023-01-13T18:07:00.127Z,79.67
2023-01-13T18:09:28.126Z,79.38
2023-01-13T18:11:56.034Z,79.29
2023-01-13T18:14:23.970Z,79.49
2023-01-13T18:16:52.963Z,79.68
2023-01-13T18:19:38.453Z,79.98
2023-01-13T18:22:25.038Z,80.30
2023-01-13T18:25:10.348Z,80.56
2023-01-13T18:27:41.173Z,80.43
2023-01-13T18:30:10.868Z,80.56
2023-01-13T18:32:39.053Z,80.33
2023-01-13T18:35:10.380Z,79.89
2023-01-13T18:37:42.143Z,80.37
2023-01-13T18:40:12.672Z,80.20
2023-01-13T18:42:57.884Z,80.66
2023-01-13T18:45:28.090Z,80.14
2023-01-13T18:47:58.174Z,80.51
2023-01-13T18:50:27.129Z,79.73
2023-01-13T18:52:57.238Z,80.38
2023-01-13T18:55:28.472Z,80.37
2023-01-13T18:57:56.878Z,80.65
2023-01-13T19:00:26.810Z,80.57
2023-01-13T19:05:35.366Z,80.01
2023-01-13T19:08:05.198Z,80.47
2023-01-13T19:10:33.088Z,80.60
2023-01-13T19:13:01.744Z,79.74
2023-01-13T19:15:29.753Z,80.10
2023-01-13T19:17:57.766Z,80.19
2023-01-13T19:20:25.720Z,79.36
2023-01-13T19:22:54.578Z,79.90
2023-01-13T19:25:24.003Z,79.97
2023-01-13T19:27:51.931Z,79.21
2023-01-13T19:30:20.291Z,79.09
2023-01-13T19:32:48.198Z,79.05
2023-01-13T19:35:17.764Z,79.30
2023-01-13T19:37:45.821Z,79.19
2023-01-13T19:40:14.629Z,78.48
2023-01-13T19:43:03.031Z,78.93
2023-01-13T19:45:33.681Z,78.87
2023-01-13T19:48:04.940Z,79.01
2023-01-13T19:50:37.030Z,78.24
2023-01-13T19:53:04.942Z,78.52
2023-01-13T19:55:32.849Z,78.00
2023-01-13T19:58:03.452Z,78.15
2023-01-13T20:00:31.381Z,77.99
2023-01-13T20:03:03.379Z,77.64
2023-01-13T20:05:31.704Z,78.17
2023-01-13T20:07:59.616Z,77.46
2023-01-13T20:10:30.351Z,77.49
2023-01-13T20:12:58.326Z,77.85
2023-01-13T20:15:27.709Z,77.71
2023-01-13T20:17:57.316Z,77.42
2023-01-13T20:20:26.331Z,78.06
2023-01-13T20:22:54.780Z,77.74
2023-01-13T20:25:22.688Z,76.89
2023-01-13T20:27:50.774Z,76.22
2023-01-13T20:30:18.725Z,76.54
2023-01-13T20:32:48.001Z,76.69
2023-01-13T20:35:16.695Z,76.74
2023-01-13T20:37:44.708Z,77.03
2023-01-13T20:40:16.182Z,76.55
2023-01-13T20:42:45.086Z,76.74
2023-01-13T20:45:17.448Z,77.05
2023-01-13T20:47:47.324Z,76.86
2023-01-13T20:50:16.153Z,76.64
2023-01-13T20:52:44.391Z,76.41
2023-01-13T20:55:13.316Z,76.13
2023-01-13T20:57:41.457Z,76.57
2023-01-13T21:00:11.266Z,77.01
2023-01-13T21:02:40.987Z,76.23
2023-01-13T21:05:10.391Z,76.63
2023-01-13T21:07:38.437Z,76.36
2023-01-13T21:10:07.104Z,76.25
2023-01-13T21:12:52.531Z,76.08
2023-01-13T21:15:21.976Z,76.52
2023-01-13T21:18:09.916Z,76.45
2023-01-13T21:20:40.338Z,76.90
2023-01-13T21:23:10.673Z,77.00
2023-01-13T21:25:39.856Z,77.75
2023-01-13T21:28:10.299Z,78.20
2023-01-13T21:30:39.068Z,78.07
2023-01-13T21:33:07.032Z,78.73
2023-01-13T21:35:38.173Z,78.95
2023-01-13T21:38:07.466Z,77.94
2023-01-13T21:40:35.427Z,77.84
2023-01-13T21:43:20.646Z,76.85
2023-01-13T21:46:06.004Z,77.18
2023-01-13T21:48:34.111Z,76.76
2023-01-13T21:51:02.417Z,77.40
2023-01-13T21:53:31.732Z,77.43
2023-01-13T21:55:59.607Z,77.29
2023-01-13T21:58:27.437Z,77.47
2023-01-13T22:00:55.489Z,76.97
2023-01-13T22:03:23.399Z,76.67
2023-01-13T22:05:55.631Z,76.90
2023-01-13T22:08:23.596Z,76.20
2023-01-13T22:10:58.434Z,76.38
2023-01-13T22:13:44.558Z,77.02
2023-01-13T22:16:12.562Z,76.74
2023-01-13T22:18:40.444Z,76.94
2023-01-13T22:21:08.984Z,77.68
2023-01-13T22:23:36.909Z,77.67
2023-01-13T22:26:08.093Z,77.95
2023-01-13T22:28:40.942Z,78.43
2023-01-13T22:31:10.841Z,77.80
2023-01-13T22:33:39.995Z,76.90
2023-01-13T22:36:09.097Z,76.83
2023-01-13T22:38:37.384Z,77.68
2023-01-13T22:41:09.014Z,77.51
2023-01-13T22:43:38.389Z,77.60
2023-01-13T22:46:08.394Z,77.76
2023-01-13T22:48:36.520Z,78.06
2023-01-13T22:51:09.863Z,77.92
2023-01-13T22:53:38.764Z,78.82
2023-01-13T22:56:09.364Z,79.09
2023-01-13T22:58:37.255Z,77.94
2023-01-13T23:01:09.732Z,78.69
2023-01-13T23:03:37.760Z,78.80
2023-01-13T23:06:06.261Z,78.35
2023-01-13T23:08:34.078Z,78.40
2023-01-13T23:11:03.178Z,78.98
2023-01-13T23:13:32.643Z,78.18
2023-01-13T23:16:03.353Z,78.75
2023-01-13T23:18:31.680Z,78.67
2023-01-13T23:21:04.736Z,78.50
2023-01-13T23:23:33.984Z,78.93
2023-01-13T23:26:01.965Z,78.68
2023-01-13T23:28:31.151Z,79.10
2023-01-13T23:31:00.524Z,78.73
2023-01-13T23:33:28.423Z,79.00
2023-01-13T23:35:57.261Z,79.39
2023-01-13T23:38:25.866Z,79.17
2023-01-13T23:40:53.707Z,79.96
2023-01-13T23:43:21.727Z,79.77
2023-01-13T23:45:49.844Z,79.62
2023-01-13T23:48:19.451Z,79.64
2023-01-13T23:50:57.840Z,79.53
2023-01-13T23:53:30.989Z,79.67
2023-01-13T23:55:59.418Z,80.04
2023-01-13T23:58:27.431Z,80.03
